sensor_id;sensor_type;location;lat;lon;timestamp;pressure;altitude;pressure_sealevel;temperature;humidity
80321;BME280;69633;47.066;15.450;2023-12-20T00:01:02;97545.94;;;2.25;77.64
80321;BME280;69633;47.066;15.450;2023-12-20T00:03:28;97537.34;;;2.19;77.72
80321;BME280;69633;47.066;15.450;2023-12-20T00:05:53;97539.91;;;2.24;77.68
80321;BME280;69633;47.066;15.450;2023-12-20T00:08:19;97527.88;;;2.23;77.04
80321;BME280;69633;47.066;15.450;2023-12-20T00:10:44;97525.53;;;2.22;77.23
80321;BME280;69633;47.066;15.450;2023-12-20T00:13:10;97526.53;;;2.26;77.24
80321;BME280;69633;47.066;15.450;2023-12-20T00:15:36;97519.38;;;2.36;76.31
80321;BME280;69633;47.066;15.450;2023-12-20T00:18:01;97519.84;;;2.43;76.67
80321;BME280;69633;47.066;15.450;2023-12-20T00:20:28;97509.28;;;2.54;78.31
80321;BME280;69633;47.066;15.450;2023-12-20T00:22:56;97509.16;;;2.64;76.59
80321;BME280;69633;47.066;15.450;2023-12-20T00:25:23;97514.81;;;2.76;75.46
80321;BME280;69633;47.066;15.450;2023-12-20T00:27:48;97504.34;;;2.76;75.08
80321;BME280;69633;47.066;15.450;2023-12-20T00:30:14;97502.16;;;2.83;75.53
80321;BME280;69633;47.066;15.450;2023-12-20T00:32:39;97493.03;;;2.80;74.95
80321;BME280;69633;47.066;15.450;2023-12-20T00:35:14;97489.63;;;2.80;74.98
80321;BME280;69633;47.066;15.450;2023-12-20T00:37:40;97491.22;;;2.76;75.24
80321;BME280;69633;47.066;15.450;2023-12-20T00:40:05;97495.72;;;2.70;75.58
80321;BME280;69633;47.066;15.450;2023-12-20T00:42:32;97499.34;;;2.74;75.20
80321;BME280;69633;47.066;15.450;2023-12-20T00:44:58;97492.72;;;2.82;74.99
80321;BME280;69633;47.066;15.450;2023-12-20T00:47:24;97482.31;;;2.77;75.19
80321;BME280;69633;47.066;15.450;2023-12-20T00:49:49;97480.13;;;2.84;75.12
80321;BME280;69633;47.066;15.450;2023-12-20T00:52:15;97474.91;;;2.84;74.68
80321;BME280;69633;47.066;15.450;2023-12-20T00:54:42;97473.88;;;2.80;75.21
80321;BME280;69633;47.066;15.450;2023-12-20T00:57:08;97472.09;;;2.75;75.13
80321;BME280;69633;47.066;15.450;2023-12-20T00:59:33;97457.28;;;2.66;75.35
80321;BME280;69633;47.066;15.450;2023-12-20T01:01:58;97459.69;;;2.62;76.38
80321;BME280;69633;47.066;15.450;2023-12-20T01:04:24;97458.81;;;2.67;77.80
80321;BME280;69633;47.066;15.450;2023-12-20T01:06:49;97453.53;;;2.72;76.32
80321;BME280;69633;47.066;15.450;2023-12-20T01:09:15;97457.28;;;2.66;75.86
80321;BME280;69633;47.066;15.450;2023-12-20T01:11:40;97453.72;;;2.57;75.50
80321;BME280;69633;47.066;15.450;2023-12-20T01:14:05;97458.38;;;2.60;76.44
80321;BME280;69633;47.066;15.450;2023-12-20T01:16:31;97460.75;;;2.61;76.23
80321;BME280;69633;47.066;15.450;2023-12-20T01:18:56;97454.72;;;2.61;76.21
80321;BME280;69633;47.066;15.450;2023-12-20T01:21:22;97461.53;;;2.62;76.30
80321;BME280;69633;47.066;15.450;2023-12-20T01:23:47;97454.16;;;2.64;75.70
80321;BME280;69633;47.066;15.450;2023-12-20T01:26:14;97457.06;;;2.62;75.99
80321;BME280;69633;47.066;15.450;2023-12-20T01:28:40;97450.03;;;2.58;75.36
80321;BME280;69633;47.066;15.450;2023-12-20T01:31:05;97449.91;;;2.44;75.53
80321;BME280;69633;47.066;15.450;2023-12-20T01:33:31;97442.44;;;2.32;76.02
80321;BME280;69633;47.066;15.450;2023-12-20T01:35:56;97442.53;;;2.22;76.06
80321;BME280;69633;47.066;15.450;2023-12-20T01:38:22;97443.09;;;2.19;76.10
80321;BME280;69633;47.066;15.450;2023-12-20T01:40:47;97450.97;;;2.14;76.62
80321;BME280;69633;47.066;15.450;2023-12-20T01:43:13;97447.88;;;2.12;76.22
80321;BME280;69633;47.066;15.450;2023-12-20T01:45:38;97438.97;;;2.13;76.95
80321;BME280;69633;47.066;15.450;2023-12-20T01:48:04;97428.81;;;2.07;76.56
80321;BME280;69633;47.066;15.450;2023-12-20T01:50:31;97428.66;;;1.93;76.58
80321;BME280;69633;47.066;15.450;2023-12-20T01:53:01;97425.56;;;1.91;77.05
80321;BME280;69633;47.066;15.450;2023-12-20T01:55:29;97418.53;;;1.86;77.52
80321;BME280;69633;47.066;15.450;2023-12-20T01:57:56;97418.00;;;1.84;77.01
80321;BME280;69633;47.066;15.450;2023-12-20T02:00:23;97407.88;;;1.78;77.37
80321;BME280;69633;47.066;15.450;2023-12-20T02:02:55;97413.13;;;1.73;77.84
80321;BME280;69633;47.066;15.450;2023-12-20T02:05:21;97404.34;;;1.64;77.66
80321;BME280;69633;47.066;15.450;2023-12-20T02:07:47;97399.13;;;1.59;77.85
80321;BME280;69633;47.066;15.450;2023-12-20T02:10:13;97390.28;;;1.55;78.66
80321;BME280;69633;47.066;15.450;2023-12-20T02:12:38;97385.03;;;1.55;79.75
80321;BME280;69633;47.066;15.450;2023-12-20T02:15:04;97384.47;;;1.63;78.31
80321;BME280;69633;47.066;15.450;2023-12-20T02:17:31;97383.97;;;1.61;77.85
80321;BME280;69633;47.066;15.450;2023-12-20T02:19:57;97379.25;;;1.58;78.31
80321;BME280;69633;47.066;15.450;2023-12-20T02:22:22;97374.31;;;1.56;78.81
80321;BME280;69633;47.066;15.450;2023-12-20T02:24:48;97373.56;;;1.51;78.77
80321;BME280;69633;47.066;15.450;2023-12-20T02:27:15;97364.44;;;1.48;78.84
80321;BME280;69633;47.066;15.450;2023-12-20T02:29:43;97362.09;;;1.46;78.91
80321;BME280;69633;47.066;15.450;2023-12-20T02:32:08;97366.00;;;1.49;78.74
80321;BME280;69633;47.066;15.450;2023-12-20T02:34:34;97349.44;;;1.59;78.76
80321;BME280;69633;47.066;15.450;2023-12-20T02:36:59;97346.78;;;1.64;78.15
80321;BME280;69633;47.066;15.450;2023-12-20T02:39:25;97345.69;;;1.70;77.91
80321;BME280;69633;47.066;15.450;2023-12-20T02:41:50;97337.84;;;1.70;78.05
80321;BME280;69633;47.066;15.450;2023-12-20T02:44:16;97333.16;;;1.67;77.60
80321;BME280;69633;47.066;15.450;2023-12-20T02:46:41;97324.34;;;1.58;78.13
80321;BME280;69633;47.066;15.450;2023-12-20T02:49:07;97324.91;;;1.55;78.09
80321;BME280;69633;47.066;15.450;2023-12-20T02:51:32;97321.22;;;1.56;77.94
80321;BME280;69633;47.066;15.450;2023-12-20T02:53:58;97320.75;;;1.54;78.28
80321;BME280;69633;47.066;15.450;2023-12-20T02:56:23;97318.88;;;1.54;78.07
80321;BME280;69633;47.066;15.450;2023-12-20T02:58:48;97310.28;;;1.54;77.30
80321;BME280;69633;47.066;15.450;2023-12-20T03:01:14;97307.97;;;1.47;77.40
80321;BME280;69633;47.066;15.450;2023-12-20T03:03:39;97299.66;;;1.40;77.76
80321;BME280;69633;47.066;15.450;2023-12-20T03:06:05;97295.25;;;1.35;78.29
80321;BME280;69633;47.066;15.450;2023-12-20T03:08:30;97287.72;;;1.34;78.20
80321;BME280;69633;47.066;15.450;2023-12-20T03:10:56;97286.09;;;1.38;78.36
80321;BME280;69633;47.066;15.450;2023-12-20T03:13:21;97280.09;;;1.37;78.44
80321;BME280;69633;47.066;15.450;2023-12-20T03:15:46;97282.19;;;1.35;77.86
80321;BME280;69633;47.066;15.450;2023-12-20T03:18:12;97271.66;;;1.45;78.23
80321;BME280;69633;47.066;15.450;2023-12-20T03:20:37;97274.16;;;1.56;77.01
80321;BME280;69633;47.066;15.450;2023-12-20T03:23:03;97265.97;;;1.62;76.56
80321;BME280;69633;47.066;15.450;2023-12-20T03:25:29;97272.81;;;1.87;76.42
80321;BME280;69633;47.066;15.450;2023-12-20T03:27:55;97262.59;;;1.85;76.08
80321;BME280;69633;47.066;15.450;2023-12-20T03:30:20;97258.53;;;1.98;75.38
80321;BME280;69633;47.066;15.450;2023-12-20T03:32:46;97267.63;;;2.06;74.72
80321;BME280;69633;47.066;15.450;2023-12-20T03:35:12;97258.72;;;1.83;75.78
80321;BME280;69633;47.066;15.450;2023-12-20T03:37:37;97263.31;;;1.67;76.35
80321;BME280;69633;47.066;15.450;2023-12-20T03:40:03;97265.97;;;1.62;76.58
80321;BME280;69633;47.066;15.450;2023-12-20T03:42:29;97262.66;;;1.57;76.59
80321;BME280;69633;47.066;15.450;2023-12-20T03:44:54;97262.34;;;1.58;76.85
80321;BME280;69633;47.066;15.450;2023-12-20T03:47:20;97254.75;;;1.62;76.58
80321;BME280;69633;47.066;15.450;2023-12-20T03:49:45;97259.94;;;1.67;76.87
80321;BME280;69633;47.066;15.450;2023-12-20T03:52:10;97263.56;;;1.71;76.17
80321;BME280;69633;47.066;15.450;2023-12-20T03:54:37;97264.00;;;1.78;76.34
80321;BME280;69633;47.066;15.450;2023-12-20T03:57:02;97263.88;;;1.88;75.81
80321;BME280;69633;47.066;15.450;2023-12-20T03:59:27;97264.03;;;1.97;75.12
80321;BME280;69633;47.066;15.450;2023-12-20T04:01:53;97260.38;;;1.98;75.79
80321;BME280;69633;47.066;15.450;2023-12-20T04:04:19;97268.00;;;1.94;74.96
80321;BME280;69633;47.066;15.450;2023-12-20T04:06:44;97257.16;;;1.82;75.44
80321;BME280;69633;47.066;15.450;2023-12-20T04:09:10;97260.66;;;1.72;75.44
80321;BME280;69633;47.066;15.450;2023-12-20T04:11:36;97266.13;;;1.76;75.82
80321;BME280;69633;47.066;15.450;2023-12-20T04:14:02;97263.00;;;1.74;76.18
80321;BME280;69633;47.066;15.450;2023-12-20T04:16:27;97270.34;;;1.72;75.79
80321;BME280;69633;47.066;15.450;2023-12-20T04:18:52;97259.88;;;1.72;76.51
80321;BME280;69633;47.066;15.450;2023-12-20T04:21:18;97258.19;;;1.81;76.33
80321;BME280;69633;47.066;15.450;2023-12-20T04:23:43;97255.19;;;1.69;76.58
80321;BME280;69633;47.066;15.450;2023-12-20T04:26:09;97258.47;;;1.56;78.05
80321;BME280;69633;47.066;15.450;2023-12-20T04:28:34;97249.66;;;1.46;78.46
80321;BME280;69633;47.066;15.450;2023-12-20T04:31:00;97259.09;;;1.42;79.03
80321;BME280;69633;47.066;15.450;2023-12-20T04:33:25;97262.25;;;1.44;78.71
80321;BME280;69633;47.066;15.450;2023-12-20T04:35:50;97258.28;;;1.47;78.68
80321;BME280;69633;47.066;15.450;2023-12-20T04:38:16;97247.53;;;1.54;78.49
80321;BME280;69633;47.066;15.450;2023-12-20T04:40:42;97249.81;;;1.60;78.13
80321;BME280;69633;47.066;15.450;2023-12-20T04:43:07;97252.09;;;1.67;77.95
80321;BME280;69633;47.066;15.450;2023-12-20T04:45:34;97247.59;;;1.72;77.31
80321;BME280;69633;47.066;15.450;2023-12-20T04:47:59;97249.69;;;1.70;77.79
80321;BME280;69633;47.066;15.450;2023-12-20T04:50:24;97242.06;;;1.74;77.61
80321;BME280;69633;47.066;15.450;2023-12-20T04:52:50;97241.84;;;1.70;77.56
80321;BME280;69633;47.066;15.450;2023-12-20T04:55:16;97240.06;;;1.66;77.64
80321;BME280;69633;47.066;15.450;2023-12-20T04:57:41;97231.19;;;1.62;77.46
80321;BME280;69633;47.066;15.450;2023-12-20T05:00:08;97239.59;;;1.59;77.58
80321;BME280;69633;47.066;15.450;2023-12-20T05:02:35;97254.84;;;1.52;78.53
80321;BME280;69633;47.066;15.450;2023-12-20T05:05:00;97246.44;;;1.55;78.46
80321;BME280;69633;47.066;15.450;2023-12-20T05:07:26;97261.97;;;1.46;78.32
80321;BME280;69633;47.066;15.450;2023-12-20T05:09:51;97261.78;;;1.37;78.84
80321;BME280;69633;47.066;15.450;2023-12-20T05:12:17;97259.81;;;1.24;78.15
80321;BME280;69633;47.066;15.450;2023-12-20T05:14:42;97258.56;;;1.17;78.24
80321;BME280;69633;47.066;15.450;2023-12-20T05:17:08;97250.47;;;1.18;78.33
80321;BME280;69633;47.066;15.450;2023-12-20T05:19:33;97239.41;;;1.26;78.15
80321;BME280;69633;47.066;15.450;2023-12-20T05:22:01;97240.66;;;1.34;77.57
80321;BME280;69633;47.066;15.450;2023-12-20T05:24:27;97249.31;;;1.29;77.26
80321;BME280;69633;47.066;15.450;2023-12-20T05:26:52;97239.91;;;1.28;78.03
80321;BME280;69633;47.066;15.450;2023-12-20T05:29:18;97236.69;;;1.36;77.88
80321;BME280;69633;47.066;15.450;2023-12-20T05:31:43;97239.84;;;1.38;77.66
80321;BME280;69633;47.066;15.450;2023-12-20T05:34:08;97237.28;;;1.28;77.44
80321;BME280;69633;47.066;15.450;2023-12-20T05:36:34;97238.91;;;1.24;77.58
80321;BME280;69633;47.066;15.450;2023-12-20T05:39:00;97242.59;;;1.23;77.71
80321;BME280;69633;47.066;15.450;2023-12-20T05:41:25;97237.44;;;1.13;77.87
80321;BME280;69633;47.066;15.450;2023-12-20T05:43:50;97234.81;;;1.13;78.13
80321;BME280;69633;47.066;15.450;2023-12-20T05:46:16;97222.81;;;1.12;78.03
80321;BME280;69633;47.066;15.450;2023-12-20T05:48:41;97222.81;;;1.12;78.04
80321;BME280;69633;47.066;15.450;2023-12-20T05:51:07;97230.66;;;1.12;78.24
80321;BME280;69633;47.066;15.450;2023-12-20T05:53:33;97231.38;;;1.18;77.77
80321;BME280;69633;47.066;15.450;2023-12-20T05:55:58;97231.19;;;1.09;77.73
80321;BME280;69633;47.066;15.450;2023-12-20T05:58:24;97241.72;;;1.04;77.96
80321;BME280;69633;47.066;15.450;2023-12-20T06:00:50;97249.78;;;1.08;78.19
80321;BME280;69633;47.066;15.450;2023-12-20T06:03:15;97255.44;;;1.20;78.15
80321;BME280;69633;47.066;15.450;2023-12-20T06:05:41;97250.88;;;1.30;77.38
80321;BME280;69633;47.066;15.450;2023-12-20T06:08:06;97244.44;;;1.46;76.90
80321;BME280;69633;47.066;15.450;2023-12-20T06:10:32;97241.63;;;1.67;76.62
80321;BME280;69633;47.066;15.450;2023-12-20T06:12:57;97247.50;;;1.77;76.09
80321;BME280;69633;47.066;15.450;2023-12-20T06:15:24;97235.66;;;1.85;75.57
80321;BME280;69633;47.066;15.450;2023-12-20T06:17:49;97241.88;;;1.89;75.88
80321;BME280;69633;47.066;15.450;2023-12-20T06:20:15;97243.84;;;2.02;75.59
80321;BME280;69633;47.066;15.450;2023-12-20T06:22:40;97235.13;;;2.07;74.75
80321;BME280;69633;47.066;15.450;2023-12-20T06:25:06;97235.84;;;2.12;74.69
80321;BME280;69633;47.066;15.450;2023-12-20T06:27:32;97235.06;;;2.12;74.52
80321;BME280;69633;47.066;15.450;2023-12-20T06:29:58;97233.66;;;2.19;74.52
80321;BME280;69633;47.066;15.450;2023-12-20T06:32:24;97227.28;;;2.25;74.54
80321;BME280;69633;47.066;15.450;2023-12-20T06:34:50;97233.94;;;2.36;73.35
80321;BME280;69633;47.066;15.450;2023-12-20T06:37:15;97229.44;;;2.42;73.69
80321;BME280;69633;47.066;15.450;2023-12-20T06:39:41;97237.44;;;2.51;73.47
80321;BME280;69633;47.066;15.450;2023-12-20T06:42:06;97235.03;;;2.54;73.36
80321;BME280;69633;47.066;15.450;2023-12-20T06:44:32;97242.69;;;2.51;73.53
80321;BME280;69633;47.066;15.450;2023-12-20T06:46:57;97241.59;;;2.52;73.58
80321;BME280;69633;47.066;15.450;2023-12-20T06:49:23;97241.53;;;2.57;73.45
80321;BME280;69633;47.066;15.450;2023-12-20T06:51:49;97242.16;;;2.49;73.54
80321;BME280;69633;47.066;15.450;2023-12-20T06:54:14;97253.28;;;2.40;73.81
80321;BME280;69633;47.066;15.450;2023-12-20T06:56:40;97257.69;;;2.45;73.96
80321;BME280;69633;47.066;15.450;2023-12-20T06:59:06;97262.69;;;2.41;74.18
80321;BME280;69633;47.066;15.450;2023-12-20T07:01:32;97255.91;;;2.40;74.68
80321;BME280;69633;47.066;15.450;2023-12-20T07:03:57;97265.53;;;2.45;74.82
80321;BME280;69633;47.066;15.450;2023-12-20T07:06:23;97266.69;;;2.58;73.76
80321;BME280;69633;47.066;15.450;2023-12-20T07:08:49;97271.34;;;2.61;74.19
80321;BME280;69633;47.066;15.450;2023-12-20T07:11:14;97276.44;;;2.71;73.97
80321;BME280;69633;47.066;15.450;2023-12-20T07:13:39;97276.31;;;2.81;73.73
80321;BME280;69633;47.066;15.450;2023-12-20T07:16:05;97279.41;;;2.83;73.29
80321;BME280;69633;47.066;15.450;2023-12-20T07:18:30;97285.28;;;2.93;73.26
80321;BME280;69633;47.066;15.450;2023-12-20T07:20:56;97281.63;;;3.08;72.81
80321;BME280;69633;47.066;15.450;2023-12-20T07:23:21;97287.59;;;3.14;72.51
80321;BME280;69633;47.066;15.450;2023-12-20T07:25:47;97291.81;;;3.28;72.13
80321;BME280;69633;47.066;15.450;2023-12-20T07:28:12;97305.81;;;3.37;71.45
80321;BME280;69633;47.066;15.450;2023-12-20T07:30:39;97306.44;;;3.48;71.44
80321;BME280;69633;47.066;15.450;2023-12-20T07:33:04;97321.44;;;3.61;71.31
80321;BME280;69633;47.066;15.450;2023-12-20T07:35:30;97320.56;;;3.66;71.33
80321;BME280;69633;47.066;15.450;2023-12-20T07:37:55;97314.84;;;3.77;71.11
80321;BME280;69633;47.066;15.450;2023-12-20T07:40:21;97320.13;;;3.91;70.29
80321;BME280;69633;47.066;15.450;2023-12-20T07:42:46;97319.91;;;3.87;70.34
80321;BME280;69633;47.066;15.450;2023-12-20T07:45:12;97326.13;;;3.78;70.95
80321;BME280;69633;47.066;15.450;2023-12-20T07:47:37;97321.28;;;3.85;70.83
80321;BME280;69633;47.066;15.450;2023-12-20T07:50:03;97324.59;;;3.90;70.42
80321;BME280;69633;47.066;15.450;2023-12-20T07:52:29;97323.78;;;3.90;70.75
80321;BME280;69633;47.066;15.450;2023-12-20T07:54:54;97322.25;;;3.89;70.79
80321;BME280;69633;47.066;15.450;2023-12-20T07:57:20;97333.16;;;3.96;70.66
80321;BME280;69633;47.066;15.450;2023-12-20T07:59:46;97343.84;;;4.00;71.02
80321;BME280;69633;47.066;15.450;2023-12-20T08:02:11;97345.22;;;4.11;70.63
80321;BME280;69633;47.066;15.450;2023-12-20T08:04:37;97349.09;;;4.13;70.09
80321;BME280;69633;47.066;15.450;2023-12-20T08:07:03;97348.91;;;4.10;70.28
80321;BME280;69633;47.066;15.450;2023-12-20T08:09:29;97350.28;;;4.07;70.17
80321;BME280;69633;47.066;15.450;2023-12-20T08:11:55;97341.81;;;4.10;70.30
80321;BME280;69633;47.066;15.450;2023-12-20T08:14:21;97357.56;;;4.24;69.90
80321;BME280;69633;47.066;15.450;2023-12-20T08:16:46;97346.03;;;4.38;69.85
80321;BME280;69633;47.066;15.450;2023-12-20T08:19:11;97347.66;;;4.34;70.03
80321;BME280;69633;47.066;15.450;2023-12-20T08:21:37;97351.47;;;4.42;69.68
80321;BME280;69633;47.066;15.450;2023-12-20T08:24:03;97351.47;;;4.42;70.07
80321;BME280;69633;47.066;15.450;2023-12-20T08:26:29;97347.56;;;4.53;69.21
80321;BME280;69633;47.066;15.450;2023-12-20T08:28:54;97357.97;;;4.45;69.52
80321;BME280;69633;47.066;15.450;2023-12-20T08:31:20;97350.19;;;4.39;70.14
80321;BME280;69633;47.066;15.450;2023-12-20T08:33:48;97349.41;;;4.53;69.79
80321;BME280;69633;47.066;15.450;2023-12-20T08:36:14;97344.63;;;4.68;69.25
80321;BME280;69633;47.066;15.450;2023-12-20T08:38:39;97358.69;;;4.86;69.08
80321;BME280;69633;47.066;15.450;2023-12-20T08:41:07;97359.94;;;5.02;68.46
80321;BME280;69633;47.066;15.450;2023-12-20T08:43:34;97353.75;;;5.20;67.12
80321;BME280;69633;47.066;15.450;2023-12-20T08:46:01;97351.56;;;5.22;67.00
80321;BME280;69633;47.066;15.450;2023-12-20T08:48:28;97360.66;;;5.16;66.57
80321;BME280;69633;47.066;15.450;2023-12-20T08:50:53;97367.06;;;5.24;66.41
80321;BME280;69633;47.066;15.450;2023-12-20T08:53:19;97370.59;;;5.19;65.91
80321;BME280;69633;47.066;15.450;2023-12-20T08:55:45;97368.31;;;5.26;66.38
80321;BME280;69633;47.066;15.450;2023-12-20T08:58:10;97376.81;;;5.23;66.02
80321;BME280;69633;47.066;15.450;2023-12-20T09:00:36;97374.59;;;5.17;66.20
80321;BME280;69633;47.066;15.450;2023-12-20T09:03:02;97375.84;;;5.19;66.64
80321;BME280;69633;47.066;15.450;2023-12-20T09:05:28;97376.81;;;5.23;66.57
80321;BME280;69633;47.066;15.450;2023-12-20T09:07:54;97380.50;;;5.22;66.83
80321;BME280;69633;47.066;15.450;2023-12-20T09:10:19;97382.78;;;5.15;66.93
80321;BME280;69633;47.066;15.450;2023-12-20T09:12:53;97375.50;;;5.12;67.11
80321;BME280;69633;47.066;15.450;2023-12-20T09:15:26;97364.78;;;5.09;67.37
80321;BME280;69633;47.066;15.450;2023-12-20T09:17:51;97358.78;;;4.95;67.32
80321;BME280;69633;47.066;15.450;2023-12-20T09:20:17;97348.50;;;4.71;68.52
80321;BME280;69633;47.066;15.450;2023-12-20T09:22:42;97345.56;;;4.72;68.35
80321;BME280;69633;47.066;15.450;2023-12-20T09:25:10;97357.13;;;4.85;68.30
80321;BME280;69633;47.066;15.450;2023-12-20T09:27:37;97365.72;;;4.77;68.03
80321;BME280;69633;47.066;15.450;2023-12-20T09:30:03;97356.06;;;4.72;68.51
80321;BME280;69633;47.066;15.450;2023-12-20T09:32:30;97348.91;;;5.00;67.85
80321;BME280;69633;47.066;15.450;2023-12-20T09:34:55;97356.97;;;5.17;66.92
80321;BME280;69633;47.066;15.450;2023-12-20T09:37:21;97359.38;;;5.27;66.54
80321;BME280;69633;47.066;15.450;2023-12-20T09:39:46;97371.03;;;5.35;65.91
80321;BME280;69633;47.066;15.450;2023-12-20T09:42:17;97379.34;;;5.28;66.30
80321;BME280;69633;47.066;15.450;2023-12-20T09:44:47;97375.75;;;5.47;65.50
80321;BME280;69633;47.066;15.450;2023-12-20T09:47:14;97370.06;;;5.53;65.68
80321;BME280;69633;47.066;15.450;2023-12-20T09:49:42;97366.81;;;5.78;64.59
80321;BME280;69633;47.066;15.450;2023-12-20T09:52:09;97358.63;;;5.80;64.17
80321;BME280;69633;47.066;15.450;2023-12-20T09:54:36;97330.03;;;5.87;64.32
80321;BME280;69633;47.066;15.450;2023-12-20T09:57:02;97326.22;;;5.49;65.19
80321;BME280;69633;47.066;15.450;2023-12-20T09:59:27;97325.31;;;5.53;66.00
80321;BME280;69633;47.066;15.450;2023-12-20T10:01:55;97332.53;;;5.70;65.14
80321;BME280;69633;47.066;15.450;2023-12-20T10:04:21;97343.44;;;5.77;65.25
80321;BME280;69633;47.066;15.450;2023-12-20T10:06:47;97321.75;;;6.02;64.89
80321;BME280;69633;47.066;15.450;2023-12-20T10:09:13;97324.72;;;6.09;63.08
80321;BME280;69633;47.066;15.450;2023-12-20T10:11:39;97338.56;;;6.23;63.61
80321;BME280;69633;47.066;15.450;2023-12-20T10:14:06;97325.13;;;6.34;62.42
80321;BME280;69633;47.066;15.450;2023-12-20T10:16:33;97324.66;;;6.49;62.05
80321;BME280;69633;47.066;15.450;2023-12-20T10:18:59;97327.59;;;6.39;62.04
80321;BME280;69633;47.066;15.450;2023-12-20T10:21:26;97322.38;;;6.56;62.15
80321;BME280;69633;47.066;15.450;2023-12-20T10:23:53;97328.91;;;6.67;61.74
80321;BME280;69633;47.066;15.450;2023-12-20T10:26:20;97320.41;;;6.78;61.12
80321;BME280;69633;47.066;15.450;2023-12-20T10:28:46;97318.56;;;6.96;61.05
80321;BME280;69633;47.066;15.450;2023-12-20T10:31:32;97305.50;;;7.00;60.66
80321;BME280;69633;47.066;15.450;2023-12-20T10:33:58;97298.06;;;7.02;60.19
80321;BME280;69633;47.066;15.450;2023-12-20T10:36:29;97305.03;;;7.06;60.32
80321;BME280;69633;47.066;15.450;2023-12-20T10:38:55;97318.25;;;7.15;60.45
80321;BME280;69633;47.066;15.450;2023-12-20T10:41:28;97314.50;;;7.24;59.99
80321;BME280;69633;47.066;15.450;2023-12-20T10:44:04;97305.66;;;7.20;59.70
80321;BME280;69633;47.066;15.450;2023-12-20T10:46:34;97303.47;;;7.05;60.00
80321;BME280;69633;47.066;15.450;2023-12-20T10:49:02;97298.06;;;7.02;60.66
80321;BME280;69633;47.066;15.450;2023-12-20T10:51:28;97306.44;;;6.95;60.51
80321;BME280;69633;47.066;15.450;2023-12-20T10:53:55;97298.53;;;6.95;60.55
80321;BME280;69633;47.066;15.450;2023-12-20T10:56:22;97295.09;;;6.95;60.46
80321;BME280;69633;47.066;15.450;2023-12-20T10:58:49;97294.47;;;7.06;60.57
80321;BME280;69633;47.066;15.450;2023-12-20T11:01:16;97296.66;;;7.04;60.83
80321;BME280;69633;47.066;15.450;2023-12-20T11:03:47;97292.94;;;7.05;60.80
80321;BME280;69633;47.066;15.450;2023-12-20T11:09:14;97285.75;;;7.32;60.05
80321;BME280;69633;47.066;15.450;2023-12-20T11:14:31;97282.53;;;7.35;60.61
80321;BME280;69633;47.066;15.450;2023-12-20T11:17:09;97276.56;;;7.46;60.11
80321;BME280;69633;47.066;15.450;2023-12-20T11:22:22;97273.75;;;7.68;59.55
80321;BME280;69633;47.066;15.450;2023-12-20T11:24:48;97281.34;;;7.70;60.27
80321;BME280;69633;47.066;15.450;2023-12-20T11:27:14;97282.25;;;7.74;59.07
80321;BME280;69633;47.066;15.450;2023-12-20T11:29:40;97276.97;;;7.74;59.03
80321;BME280;69633;47.066;15.450;2023-12-20T11:34:55;97281.81;;;7.63;59.05
80321;BME280;69633;47.066;15.450;2023-12-20T11:37:21;97285.69;;;7.66;59.51
80321;BME280;69633;47.066;15.450;2023-12-20T11:39:56;97280.22;;;7.80;59.29
80321;BME280;69633;47.066;15.450;2023-12-20T11:42:25;97266.41;;;7.74;59.38
80321;BME280;69633;47.066;15.450;2023-12-20T11:44:50;97267.31;;;7.78;59.87
80321;BME280;69633;47.066;15.450;2023-12-20T11:47:16;97265.78;;;7.77;59.62
80321;BME280;69633;47.066;15.450;2023-12-20T11:49:46;97264.03;;;7.90;59.94
80321;BME280;69633;47.066;15.450;2023-12-20T11:52:12;97252.03;;;7.92;59.31
80321;BME280;69633;47.066;15.450;2023-12-20T11:54:38;97259.78;;;7.97;59.05
80321;BME280;69633;47.066;15.450;2023-12-20T11:57:03;97260.88;;;7.96;58.84
80321;BME280;69633;47.066;15.450;2023-12-20T11:59:30;97253.78;;;8.17;58.45
80321;BME280;69633;47.066;15.450;2023-12-20T12:01:56;97247.81;;;8.29;58.05
80321;BME280;69633;47.066;15.450;2023-12-20T12:04:26;97238.75;;;8.39;57.29
80321;BME280;69633;47.066;15.450;2023-12-20T12:06:51;97231.53;;;8.18;58.42
80321;BME280;69633;47.066;15.450;2023-12-20T12:09:17;97226.53;;;7.96;58.59
80321;BME280;69633;47.066;15.450;2023-12-20T12:11:43;97239.09;;;7.99;59.10
80321;BME280;69633;47.066;15.450;2023-12-20T12:14:08;97234.56;;;8.08;58.31
80321;BME280;69633;47.066;15.450;2023-12-20T12:16:34;97231.34;;;8.23;58.14
80321;BME280;69633;47.066;15.450;2023-12-20T12:19:00;97225.47;;;8.18;58.37
80321;BME280;69633;47.066;15.450;2023-12-20T12:21:25;97218.97;;;8.15;58.70
80321;BME280;69633;47.066;15.450;2023-12-20T12:23:51;97222.34;;;8.24;58.27
80321;BME280;69633;47.066;15.450;2023-12-20T12:26:17;97227.63;;;8.24;58.53
80321;BME280;69633;47.066;15.450;2023-12-20T12:28:42;97226.94;;;8.07;59.16
80321;BME280;69633;47.066;15.450;2023-12-20T12:31:09;97218.16;;;7.94;59.13
80321;BME280;69633;47.066;15.450;2023-12-20T12:33:38;97218.44;;;8.01;59.49
80321;BME280;69633;47.066;15.450;2023-12-20T12:36:07;97211.16;;;8.19;59.09
80321;BME280;69633;47.066;15.450;2023-12-20T12:38:33;97225.28;;;8.32;58.70
80321;BME280;69633;47.066;15.450;2023-12-20T12:41:00;97215.16;;;8.34;58.68
80321;BME280;69633;47.066;15.450;2023-12-20T12:43:25;97215.09;;;8.42;58.67
80321;BME280;69633;47.066;15.450;2023-12-20T12:45:51;97198.63;;;8.37;58.54
80321;BME280;69633;47.066;15.450;2023-12-20T12:48:17;97207.69;;;8.36;58.70
80321;BME280;69633;47.066;15.450;2023-12-20T12:50:42;97213.41;;;8.38;58.88
80321;BME280;69633;47.066;15.450;2023-12-20T12:53:08;97220.00;;;8.32;59.15
80321;BME280;69633;47.066;15.450;2023-12-20T12:55:34;97214.72;;;8.32;59.40
80321;BME280;69633;47.066;15.450;2023-12-20T12:58:00;97208.38;;;8.45;59.04
80321;BME280;69633;47.066;15.450;2023-12-20T13:00:27;97209.59;;;8.47;58.54
80321;BME280;69633;47.066;15.450;2023-12-20T13:02:52;97210.91;;;8.62;58.44
80321;BME280;69633;47.066;15.450;2023-12-20T13:05:17;97210.63;;;8.55;58.64